Time;durP1;ratioP1;P1;durP2;ratioP2;P2;SDS_P1;SDS_P2;PMS_P1;PMS_P2;Temp;Humidity;BMP_temperature;BMP_pressure;BME280_temperature;BME280_humidity;BME280_pressure;Samples;Min_cycle;Max_cycle;Signal;HPM_P1;HPM_P2
2023/09/24 00:00:42;;;;;;;2.87;2.33;;;13.70;99.90;;;;;;5026238;28;20296;-68
2023/09/24 00:03:10;;;;;;;2.60;2.40;;;13.80;99.90;;;;;;5026281;28;20221;-67
2023/09/24 00:05:41;;;;;;;11.23;2.90;;;13.70;99.90;;;;;;5026136;28;20212;-68
2023/09/24 00:08:08;;;;;;;3.03;2.40;;;13.70;99.90;;;;;;5025863;28;20207;-68
2023/09/24 00:10:37;;;;;;;2.60;2.40;;;13.60;99.90;;;;;;5026456;28;20216;-68
2023/09/24 00:13:04;;;;;;;3.93;2.40;;;13.60;99.90;;;;;;5026008;28;20248;-69
2023/09/24 00:15:33;;;;;;;2.20;2.10;;;13.50;99.90;;;;;;5025759;28;20209;-68
2023/09/24 00:18:00;;;;;;;2.27;2.07;;;13.60;99.90;;;;;;5026458;28;20285;-68
2023/09/24 00:20:27;;;;;;;2.07;1.97;;;13.70;99.90;;;;;;5025789;28;20247;-68
2023/09/24 00:22:54;;;;;;;2.80;2.60;;;13.60;99.90;;;;;;5007360;28;20742;-68
2023/09/24 00:25:23;;;;;;;3.20;2.40;;;13.60;99.90;;;;;;5006002;28;20205;-68
2023/09/24 00:27:51;;;;;;;3.03;2.83;;;13.60;99.90;;;;;;5005941;28;20668;-68
2023/09/24 00:30:18;;;;;;;4.63;2.30;;;13.50;99.90;;;;;;5016779;28;20247;-68
2023/09/24 00:32:45;;;;;;;2.80;2.60;;;13.60;99.90;;;;;;5025706;28;20288;-68
2023/09/24 00:35:12;;;;;;;2.60;2.40;;;13.50;99.90;;;;;;5025854;28;20261;-68
2023/09/24 00:37:39;;;;;;;2.77;2.40;;;13.50;99.90;;;;;;5025626;28;20794;-68
2023/09/24 00:40:09;;;;;;;2.40;2.20;;;13.60;99.90;;;;;;5026124;28;20296;-68
2023/09/24 00:42:37;;;;;;;2.53;2.40;;;13.50;99.90;;;;;;5025408;28;20196;-68
2023/09/24 00:45:11;;;;;;;6.63;2.77;;;13.50;99.90;;;;;;5025862;28;20263;-68
2023/09/24 00:47:39;;;;;;;2.50;2.30;;;13.60;99.90;;;;;;5025882;28;20284;-68
2023/09/24 00:50:09;;;;;;;2.40;2.30;;;13.70;99.90;;;;;;5025336;28;20212;-68
2023/09/24 00:52:36;;;;;;;3.63;2.33;;;13.70;99.90;;;;;;5009403;28;20217;-68
2023/09/24 00:55:06;;;;;;;2.73;2.10;;;13.70;99.90;;;;;;5021591;28;20197;-68
2023/09/24 00:57:34;;;;;;;2.57;2.13;;;13.60;99.90;;;;;;5024811;28;20224;-68
2023/09/24 01:00:08;;;;;;;2.23;2.13;;;13.60;99.90;;;;;;5024865;28;20328;-68
2023/09/24 01:02:37;;;;;;;2.63;2.43;;;13.50;99.90;;;;;;5025026;28;20628;-67
2023/09/24 01:05:05;;;;;;;5.37;2.90;;;13.50;99.90;;;;;;5024885;28;20689;-68
2023/09/24 01:07:32;;;;;;;2.50;2.30;;;13.40;99.90;;;;;;5024223;28;20295;-68
2023/09/24 01:09:59;;;;;;;4.20;2.63;;;13.40;99.90;;;;;;5024851;28;20208;-68
2023/09/24 01:12:29;;;;;;;2.63;2.43;;;13.50;99.90;;;;;;5024535;28;20839;-68
2023/09/24 01:14:57;;;;;;;3.00;2.60;;;13.40;99.90;;;;;;5024751;28;20283;-68
2023/09/24 01:17:25;;;;;;;3.97;2.53;;;13.40;99.90;;;;;;5024637;28;20209;-68
2023/09/24 01:19:54;;;;;;;3.67;2.57;;;13.40;99.90;;;;;;5025112;28;20205;-68
2023/09/24 01:22:23;;;;;;;2.50;2.30;;;13.40;99.90;;;;;;5024714;28;20299;-68
2023/09/24 01:24:50;;;;;;;2.37;2.27;;;13.40;99.90;;;;;;5024493;28;20747;-68
2023/09/24 01:27:17;;;;;;;3.33;2.47;;;13.40;99.90;;;;;;5024838;28;20677;-68
2023/09/24 01:29:44;;;;;;;3.13;2.50;;;13.30;99.90;;;;;;5025020;28;20293;-68
2023/09/24 01:32:11;;;;;;;3.03;2.80;;;13.10;99.90;;;;;;5025134;28;20307;-68
2023/09/24 01:34:38;;;;;;;2.90;2.40;;;13.20;99.90;;;;;;5024984;28;20204;-68
2023/09/24 01:37:08;;;;;;;5.87;2.63;;;13.10;99.90;;;;;;5024712;28;20225;-68
2023/09/24 01:39:37;;;;;;;3.57;2.70;;;13.20;99.90;;;;;;5024427;28;20954;-68
2023/09/24 01:42:05;;;;;;;3.37;2.77;;;13.10;99.90;;;;;;5024425;28;20299;-68
2023/09/24 01:44:33;;;;;;;3.17;2.47;;;13.00;99.90;;;;;;5024113;28;20233;-68
2023/09/24 01:47:03;;;;;;;3.03;2.73;;;13.00;99.90;;;;;;5024321;28;20213;-68
2023/09/24 01:49:31;;;;;;;5.60;3.00;;;12.90;99.90;;;;;;5024346;28;20205;-68
2023/09/24 01:51:58;;;;;;;2.47;2.37;;;13.00;99.90;;;;;;5013935;28;20216;-68
2023/09/24 01:54:25;;;;;;;4.43;2.50;;;13.00;99.90;;;;;;5004551;28;20328;-68
2023/09/24 01:56:54;;;;;;;2.73;2.40;;;13.00;99.90;;;;;;5019499;28;20211;-68
2023/09/24 01:59:21;;;;;;;2.97;2.77;;;13.10;99.90;;;;;;5024313;28;20216;-68
2023/09/24 02:01:48;;;;;;;3.00;2.80;;;13.10;99.90;;;;;;5024156;28;20383;-68
2023/09/24 02:04:16;;;;;;;4.20;3.00;;;13.10;99.90;;;;;;5024763;28;20232;-68
2023/09/24 02:06:42;;;;;;;3.53;2.30;;;13.10;99.90;;;;;;5024528;28;20292;-68
2023/09/24 02:09:14;;;;;;;2.73;2.53;;;13.10;99.90;;;;;;5025946;28;20671;-68
2023/09/24 02:11:40;;;;;;;3.10;2.60;;;13.10;99.90;;;;;;5028325;28;20248;-68
2023/09/24 02:14:09;;;;;;;3.07;2.80;;;13.20;99.90;;;;;;5027710;28;20681;-68
2023/09/24 02:16:36;;;;;;;3.90;2.73;;;13.20;99.90;;;;;;5028023;28;20215;-68
2023/09/24 02:19:04;;;;;;;3.07;2.83;;;13.30;99.90;;;;;;5028447;28;20303;-68
2023/09/24 02:21:31;;;;;;;3.43;2.67;;;13.40;99.90;;;;;;5027821;28;20219;-68
2023/09/24 02:23:58;;;;;;;2.93;2.73;;;13.50;99.90;;;;;;5028542;28;20275;-68
2023/09/24 02:26:25;;;;;;;2.77;2.57;;;13.50;99.90;;;;;;5028118;28;20200;-68
2023/09/24 02:28:53;;;;;;;2.87;2.67;;;13.40;99.90;;;;;;5027585;28;20299;-68
2023/09/24 02:31:21;;;;;;;3.03;2.67;;;13.50;99.90;;;;;;5027971;28;20212;-68
2023/09/24 02:33:48;;;;;;;3.10;2.90;;;13.60;99.90;;;;;;5027716;28;20223;-68
2023/09/24 02:36:15;;;;;;;4.80;2.50;;;13.60;99.90;;;;;;5027437;28;20728;-68
2023/09/24 02:38:43;;;;;;;2.77;2.57;;;13.60;99.90;;;;;;5027563;28;20210;-68
2023/09/24 02:41:11;;;;;;;3.00;2.63;;;13.60;99.90;;;;;;5027734;28;20209;-68
2023/09/24 02:43:38;;;;;;;2.83;2.50;;;13.60;99.90;;;;;;5027291;28;20318;-68
2023/09/24 02:46:05;;;;;;;3.13;2.90;;;13.50;99.90;;;;;;5027464;28;20292;-68
2023/09/24 02:48:35;;;;;;;2.43;2.30;;;13.50;99.90;;;;;;5027692;28;20207;-68
2023/09/24 02:51:08;;;;;;;4.10;2.73;;;13.50;99.90;;;;;;5027405;28;21041;-68
2023/09/24 02:53:35;;;;;;;3.13;2.87;;;13.20;99.90;;;;;;5027063;28;20302;-68
2023/09/24 02:56:04;;;;;;;2.90;2.67;;;13.10;99.90;;;;;;5027308;28;20208;-68
2023/09/24 02:58:31;;;;;;;2.90;2.70;;;13.00;99.90;;;;;;5027571;28;20209;-68
2023/09/24 03:00:59;;;;;;;3.63;2.90;;;12.90;99.90;;;;;;5027417;28;20236;-68
2023/09/24 03:03:26;;;;;;;3.03;2.73;;;12.80;99.90;;;;;;5026550;28;20225;-68
2023/09/24 03:05:55;;;;;;;3.33;3.00;;;12.70;99.90;;;;;;5027518;28;20237;-68
2023/09/24 03:08:23;;;;;;;2.80;2.67;;;12.80;99.90;;;;;;5027164;28;20287;-68
2023/09/24 03:10:51;;;;;;;3.20;2.90;;;12.70;99.90;;;;;;5027144;28;20213;-68
2023/09/24 03:13:18;;;;;;;3.53;2.90;;;12.80;99.90;;;;;;5027459;28;20204;-68
2023/09/24 03:15:45;;;;;;;2.70;2.50;;;12.80;99.90;;;;;;5027140;28;20299;-68
2023/09/24 03:18:12;;;;;;;4.83;2.90;;;12.80;99.90;;;;;;5026816;28;20288;-69
2023/09/24 03:20:39;;;;;;;2.90;2.70;;;12.90;99.90;;;;;;5026943;28;20213;-69
2023/09/24 03:23:09;;;;;;;2.80;2.60;;;12.80;99.90;;;;;;5018482;28;20218;-69
2023/09/24 03:25:37;;;;;;;3.03;2.80;;;12.80;99.90;;;;;;5026744;28;20736;-68
2023/09/24 03:28:04;;;;;;;2.80;2.60;;;12.90;99.90;;;;;;5026679;28;20232;-69
2023/09/24 03:30:31;;;;;;;3.13;2.83;;;13.00;99.90;;;;;;5026663;28;20240;-69
2023/09/24 03:32:58;;;;;;;4.90;2.63;;;13.10;99.90;;;;;;5027191;28;20213;-68
2023/09/24 03:35:26;;;;;;;3.97;2.80;;;13.20;99.90;;;;;;5027019;28;20601;-68
2023/09/24 03:37:55;;;;;;;3.30;2.67;;;13.30;99.90;;;;;;5026646;28;20714;-68
2023/09/24 03:40:25;;;;;;;3.17;2.67;;;13.40;99.90;;;;;;5026572;28;20215;-69
2023/09/24 03:42:52;;;;;;;3.27;3.07;;;13.40;99.90;;;;;;5026985;28;20304;-68
2023/09/24 03:45:20;;;;;;;2.80;2.60;;;13.30;99.90;;;;;;5026510;28;20320;-68
2023/09/24 03:47:48;;;;;;;3.10;2.80;;;13.30;99.90;;;;;;5026809;28;20333;-68
2023/09/24 03:50:18;;;;;;;3.27;2.70;;;13.30;99.90;;;;;;5026694;28;20245;-68
2023/09/24 03:52:47;;;;;;;2.90;2.70;;;13.40;99.90;;;;;;5026656;28;20327;-68
2023/09/24 03:55:15;;;;;;;3.00;2.80;;;13.40;99.90;;;;;;5026933;28;20235;-69
2023/09/24 03:57:44;;;;;;;3.83;3.30;;;13.30;99.90;;;;;;5026634;28;20219;-68
2023/09/24 04:00:13;;;;;;;3.17;2.90;;;13.20;99.90;;;;;;5025787;28;20962;-68
2023/09/24 04:02:40;;;;;;;3.00;2.80;;;13.30;99.90;;;;;;5025549;28;20215;-69
2023/09/24 04:05:09;;;;;;;3.40;2.90;;;13.30;99.90;;;;;;5025994;28;20268;-68
2023/09/24 04:07:38;;;;;;;3.10;2.90;;;13.30;99.90;;;;;;5025664;28;20667;-68
2023/09/24 04:10:06;;;;;;;3.50;3.20;;;13.30;99.90;;;;;;5025920;28;20640;-68
2023/09/24 04:12:34;;;;;;;3.90;3.50;;;13.30;99.90;;;;;;5025829;28;20443;-69
2023/09/24 04:15:03;;;;;;;5.17;4.00;;;13.30;99.90;;;;;;5025987;28;20300;-68
2023/09/24 04:17:31;;;;;;;5.23;4.13;;;13.20;99.90;;;;;;5026095;28;20219;-68
2023/09/24 04:19:58;;;;;;;6.73;3.90;;;13.20;99.90;;;;;;5026238;28;20255;-69
2023/09/24 04:22:25;;;;;;;4.10;3.90;;;13.30;99.90;;;;;;5026071;28;20702;-68
2023/09/24 04:24:54;;;;;;;4.47;4.07;;;13.30;99.90;;;;;;5025754;28;20339;-68
2023/09/24 04:27:21;;;;;;;4.07;3.70;;;13.30;99.90;;;;;;5026164;28;20208;-69
2023/09/24 04:29:48;;;;;;;5.20;3.93;;;13.40;99.90;;;;;;5025961;28;20566;-69
2023/09/24 04:32:16;;;;;;;5.40;4.10;;;13.30;99.90;;;;;;5025109;28;20969;-68
2023/09/24 04:34:45;;;;;;;4.23;3.90;;;13.40;99.90;;;;;;5025778;28;20303;-68
2023/09/24 04:37:13;;;;;;;4.43;4.00;;;13.40;99.90;;;;;;5025162;28;20611;-68
2023/09/24 04:39:39;;;;;;;4.80;4.43;;;13.50;99.90;;;;;;5025320;28;20250;-68
2023/09/24 04:42:07;;;;;;;4.30;4.00;;;13.50;99.90;;;;;;5025157;28;20740;-68
2023/09/24 04:44:34;;;;;;;6.47;4.50;;;13.50;99.90;;;;;;5024659;28;20229;-68
2023/09/24 04:47:02;;;;;;;4.60;4.30;;;13.60;99.90;;;;;;5025019;28;20228;-68
2023/09/24 04:49:31;;;;;;;4.53;4.23;;;13.70;99.90;;;;;;5025293;28;20912;-69
2023/09/24 04:51:58;;;;;;;4.70;4.37;;;13.60;99.90;;;;;;5025440;28;20295;-68
2023/09/24 04:54:24;;;;;;;4.63;4.20;;;13.60;99.90;;;;;;5024812;28;20332;-68
2023/09/24 04:56:52;;;;;;;5.43;5.03;;;13.70;99.90;;;;;;5025201;28;20220;-68
2023/09/24 04:59:19;;;;;;;5.50;5.00;;;13.70;99.90;;;;;;5024634;28;20223;-69
2023/09/24 05:01:46;;;;;;;6.23;5.10;;;13.70;99.90;;;;;;5025048;28;20200;-68
2023/09/24 05:04:13;;;;;;;5.40;4.70;;;13.70;99.90;;;;;;5024873;28;20303;-68
2023/09/24 05:06:41;;;;;;;5.10;4.63;;;13.60;99.90;;;;;;5024822;28;20291;-68
2023/09/24 05:09:08;;;;;;;4.90;4.57;;;13.60;99.90;;;;;;5024824;28;20215;-68
2023/09/24 05:11:35;;;;;;;5.93;5.30;;;13.60;99.90;;;;;;5024474;28;20311;-69
2023/09/24 05:14:02;;;;;;;5.67;5.17;;;13.60;99.90;;;;;;5024796;28;20296;-67
2023/09/24 05:16:31;;;;;;;6.60;6.20;;;13.60;99.90;;;;;;5024448;28;20687;-67
2023/09/24 05:19:02;;;;;;;6.80;6.20;;;13.60;99.90;;;;;;5025162;28;20232;-67
2023/09/24 05:21:30;;;;;;;6.80;6.10;;;13.50;99.90;;;;;;5024740;28;20211;-67
2023/09/24 05:23:58;;;;;;;7.53;6.10;;;13.50;99.90;;;;;;5024756;28;20215;-67
2023/09/24 05:26:25;;;;;;;8.03;7.33;;;13.50;99.90;;;;;;5024363;28;20243;-67
2023/09/24 05:28:52;;;;;;;7.10;6.47;;;13.60;99.90;;;;;;5024789;28;20216;-67
2023/09/24 05:31:19;;;;;;;7.43;6.77;;;13.60;99.90;;;;;;5024999;28;20303;-67
2023/09/24 05:33:47;;;;;;;7.07;6.57;;;13.50;99.90;;;;;;5025015;28;20266;-68
2023/09/24 05:36:14;;;;;;;7.13;6.53;;;13.60;99.90;;;;;;5005350;28;20237;-67
2023/09/24 05:38:40;;;;;;;7.43;6.80;;;13.60;99.90;;;;;;5004824;28;20308;-68
2023/09/24 05:41:09;;;;;;;8.33;6.57;;;13.60;99.90;;;;;;5012804;28;20307;-67
2023/09/24 05:43:38;;;;;;;7.00;6.40;;;13.60;99.90;;;;;;5026932;28;20745;-67
2023/09/24 05:46:05;;;;;;;7.17;6.57;;;13.60;99.90;;;;;;5028926;28;20244;-67
2023/09/24 05:48:32;;;;;;;6.70;6.20;;;13.70;99.90;;;;;;5028565;28;20244;-68
2023/09/24 05:51:03;;;;;;;6.57;6.20;;;13.70;99.90;;;;;;5028797;28;20209;-67
2023/09/24 05:53:30;;;;;;;6.50;5.93;;;13.70;99.90;;;;;;5027928;28;20741;-67
2023/09/24 05:55:57;;;;;;;6.63;6.13;;;13.80;99.90;;;;;;5028752;28;20308;-68
2023/09/24 05:58:25;;;;;;;6.13;5.53;;;13.80;99.90;;;;;;5028590;28;20323;-67
2023/09/24 06:00:52;;;;;;;6.30;5.80;;;13.80;99.90;;;;;;5028302;28;20294;-67
2023/09/24 06:03:19;;;;;;;5.93;5.33;;;13.90;99.90;;;;;;5027970;28;20298;-68
2023/09/24 06:05:46;;;;;;;7.93;5.93;;;14.00;99.90;;;;;;5028118;28;20343;-68
2023/09/24 06:08:13;;;;;;;6.57;6.00;;;14.00;99.90;;;;;;5028547;28;20359;-69
2023/09/24 06:10:44;;;;;;;5.83;5.43;;;14.10;99.90;;;;;;5028448;28;20270;-68
2023/09/24 06:13:13;;;;;;;6.63;6.13;;;14.00;99.90;;;;;;5028361;28;20197;-69
2023/09/24 06:15:42;;;;;;;6.37;5.77;;;14.00;99.90;;;;;;5028050;28;20266;-68
2023/09/24 06:18:09;;;;;;;6.60;6.00;;;13.90;99.90;;;;;;5028290;28;20201;-68
2023/09/24 06:20:38;;;;;;;6.10;5.50;;;13.90;99.90;;;;;;5028033;28;20754;-69
2023/09/24 06:23:05;;;;;;;5.80;5.03;;;13.90;99.90;;;;;;5008611;28;20209;-68
2023/09/24 06:25:33;;;;;;;6.73;6.07;;;14.00;99.90;;;;;;5008150;28;20249;-69
2023/09/24 06:27:59;;;;;;;5.90;5.50;;;14.00;99.90;;;;;;5026174;28;20240;-70
2023/09/24 06:30:26;;;;;;;5.93;5.53;;;14.10;99.90;;;;;;5027575;28;20290;-68
2023/09/24 06:32:54;;;;;;;5.90;5.37;;;14.10;99.90;;;;;;5028155;28;20263;-68
2023/09/24 06:35:21;;;;;;;5.97;5.13;;;14.10;99.90;;;;;;5028046;28;20316;-69
2023/09/24 06:37:48;;;;;;;5.47;5.10;;;14.20;99.90;;;;;;5027899;28;20298;-68
2023/09/24 06:40:15;;;;;;;6.40;5.30;;;14.10;99.90;;;;;;5027390;28;20256;-68
2023/09/24 06:42:42;;;;;;;5.13;4.63;;;14.10;99.90;;;;;;5028023;28;20205;-68
2023/09/24 06:45:10;;;;;;;5.00;4.67;;;14.10;99.90;;;;;;5027816;28;20599;-68
2023/09/24 06:47:37;;;;;;;4.40;4.10;;;14.20;99.90;;;;;;5027669;28;20204;-69
2023/09/24 06:50:06;;;;;;;5.53;4.53;;;14.30;99.90;;;;;;5027820;28;20637;-68
2023/09/24 06:52:33;;;;;;;4.70;4.13;;;14.30;99.90;;;;;;5027454;28;20213;-68
2023/09/24 06:55:00;;;;;;;5.70;5.00;;;14.40;99.90;;;;;;5027267;28;20201;-68
2023/09/24 06:57:27;;;;;;;6.93;4.80;;;14.40;99.90;;;;;;5027213;28;20754;-69
2023/09/24 06:59:54;;;;;;;4.93;4.53;;;14.30;99.90;;;;;;5027357;28;20362;-69
2023/09/24 07:02:21;;;;;;;5.70;4.63;;;14.30;99.90;;;;;;5027101;28;20948;-68
2023/09/24 07:04:50;;;;;;;5.43;4.93;;;14.20;99.90;;;;;;5024616;28;20209;-68
2023/09/24 07:07:18;;;;;;;5.23;4.73;;;14.20;99.90;;;;;;5027358;28;20215;-68
2023/09/24 07:09:47;;;;;;;5.03;4.30;;;14.30;99.90;;;;;;5027427;28;20706;-69
2023/09/24 07:12:16;;;;;;;5.27;4.87;;;14.30;99.90;;;;;;5027369;28;20668;-68
2023/09/24 07:14:43;;;;;;;4.77;4.40;;;14.30;99.90;;;;;;5027601;28;20295;-69
2023/09/24 07:17:09;;;;;;;5.90;4.17;;;14.30;99.90;;;;;;5028041;28;20289;-69
2023/09/24 07:19:36;;;;;;;7.10;4.17;;;14.40;99.90;;;;;;5027792;28;20295;-69
2023/09/24 07:22:03;;;;;;;4.90;4.10;;;14.50;99.90;;;;;;5027368;28;20212;-69
2023/09/24 07:24:32;;;;;;;4.10;3.70;;;14.60;99.90;;;;;;5027463;28;20209;-68
2023/09/24 07:27:02;;;;;;;4.60;4.17;;;14.70;99.90;;;;;;5027233;28;20242;-69
2023/09/24 07:29:29;;;;;;;4.70;3.90;;;14.60;99.90;;;;;;5026955;28;20243;-69
2023/09/24 07:31:56;;;;;;;3.80;3.50;;;14.60;99.90;;;;;;5026888;28;20303;-69
2023/09/24 07:34:24;;;;;;;4.87;3.73;;;14.60;99.90;;;;;;5026517;28;20912;-69
2023/09/24 07:36:53;;;;;;;5.10;4.03;;;14.60;99.90;;;;;;5026490;28;20324;-68
2023/09/24 07:39:20;;;;;;;6.27;4.10;;;14.50;99.90;;;;;;5026717;28;20244;-69
2023/09/24 07:41:49;;;;;;;3.90;3.60;;;14.50;99.90;;;;;;5026501;28;20288;-69
2023/09/24 07:44:18;;;;;;;4.33;3.67;;;14.60;99.90;;;;;;5025988;28;20205;-68
2023/09/24 07:46:45;;;;;;;3.80;3.40;;;14.60;99.90;;;;;;5026436;28;20276;-68
2023/09/24 07:49:12;;;;;;;4.10;3.50;;;14.50;99.90;;;;;;5026566;28;20508;-68
2023/09/24 07:51:39;;;;;;;4.47;3.93;;;14.50;99.90;;;;;;5026005;28;20240;-69
2023/09/24 07:54:06;;;;;;;4.00;3.70;;;14.60;99.90;;;;;;5026286;28;20673;-68
2023/09/24 07:56:34;;;;;;;3.93;3.13;;;14.60;99.90;;;;;;5026185;28;20209;-68
2023/09/24 07:59:04;;;;;;;4.17;3.77;;;14.80;99.90;;;;;;5026436;28;20209;-70
2023/09/24 08:01:31;;;;;;;3.90;3.10;;;14.80;99.90;;;;;;5006628;28;20278;-70
2023/09/24 08:03:58;;;;;;;3.30;3.10;;;14.90;99.90;;;;;;5006774;28;20209;-69
2023/09/24 08:06:28;;;;;;;3.00;2.70;;;15.00;99.90;;;;;;5004448;28;20299;-69
2023/09/24 08:08:55;;;;;;;6.17;3.17;;;15.10;99.90;;;;;;5006278;28;20206;-69
2023/09/24 08:11:22;;;;;;;4.10;3.10;;;15.10;99.90;;;;;;5010625;28;20300;-68
2023/09/24 08:13:50;;;;;;;3.07;2.53;;;15.20;99.90;;;;;;5025781;28;20209;-68
2023/09/24 08:16:18;;;;;;;2.47;2.30;;;15.30;99.90;;;;;;5025451;28;20296;-68
2023/09/24 08:18:45;;;;;;;2.37;2.10;;;15.40;99.90;;;;;;5025729;28;20762;-69
2023/09/24 08:21:12;;;;;;;4.27;2.50;;;15.40;99.90;;;;;;5025564;28;20690;-68
2023/09/24 08:23:39;;;;;;;2.63;2.43;;;15.50;99.90;;;;;;5025897;28;20239;-69
2023/09/24 08:26:06;;;;;;;3.57;2.80;;;15.40;99.90;;;;;;5025728;28;20236;-68
2023/09/24 08:28:33;;;;;;;3.40;3.20;;;15.40;99.90;;;;;;5025403;28;20304;-68
2023/09/24 08:31:01;;;;;;;3.33;2.73;;;15.40;99.90;;;;;;5025609;28;20211;-69
2023/09/24 08:33:29;;;;;;;2.63;2.40;;;15.40;99.90;;;;;;5025253;28;20288;-70
2023/09/24 08:35:56;;;;;;;3.10;2.80;;;15.50;99.90;;;;;;5025583;28;20347;-69
2023/09/24 08:38:24;;;;;;;2.90;2.70;;;15.60;99.90;;;;;;5025283;28;20291;-69
2023/09/24 08:40:52;;;;;;;5.57;2.83;;;15.70;99.90;;;;;;5021033;28;20294;-69
2023/09/24 08:43:25;;;;;;;3.27;2.97;;;15.70;99.90;;;;;;5024600;28;20671;-69
2023/09/24 08:45:51;;;;;;;2.90;2.70;;;15.70;99.90;;;;;;5025598;28;20774;-69
2023/09/24 08:48:20;;;;;;;3.87;3.37;;;15.60;99.90;;;;;;5025666;28;20291;-69
2023/09/24 08:50:49;;;;;;;4.63;3.00;;;15.40;99.90;;;;;;5025010;28;20295;-69
2023/09/24 08:53:16;;;;;;;3.30;2.80;;;15.30;99.90;;;;;;5023959;28;20323;-69
2023/09/24 08:55:45;;;;;;;2.77;2.57;;;15.40;99.90;;;;;;5024832;28;20201;-69
2023/09/24 08:58:12;;;;;;;3.40;2.90;;;15.50;99.90;;;;;;5025294;28;20217;-69
2023/09/24 09:00:39;;;;;;;3.53;2.90;;;15.70;99.90;;;;;;5025271;28;20597;-68
2023/09/24 09:03:06;;;;;;;4.13;2.80;;;15.90;99.90;;;;;;5025369;28;20253;-69
2023/09/24 09:05:36;;;;;;;2.90;2.70;;;16.10;99.90;;;;;;5025347;28;20315;-69
2023/09/24 09:08:06;;;;;;;3.53;2.40;;;16.30;99.90;;;;;;5024677;28;20779;-69
2023/09/24 09:10:35;;;;;;;2.57;2.37;;;16.40;99.90;;;;;;5024953;28;20316;-69
2023/09/24 09:13:09;;;;;;;2.50;2.30;;;16.50;99.90;;;;;;5025111;28;20292;-69
2023/09/24 09:15:38;;;;;;;2.70;2.47;;;16.50;99.90;;;;;;5024813;28;20345;-69
2023/09/24 09:18:06;;;;;;;2.63;2.27;;;16.60;99.90;;;;;;5024856;28;20304;-69
2023/09/24 09:20:41;;;;;;;2.30;2.10;;;16.70;99.90;;;;;;5024719;28;20248;-69
2023/09/24 09:23:15;;;;;;;2.53;2.30;;;16.90;99.90;;;;;;5024599;28;20196;-69
2023/09/24 09:25:51;;;;;;;2.23;1.80;;;17.00;99.90;;;;;;5024704;28;20212;-69
2023/09/24 09:28:22;;;;;;;3.10;2.10;;;17.20;99.90;;;;;;5024433;28;20267;-69
2023/09/24 09:31:02;;;;;;;3.03;2.00;;;17.40;99.90;;;;;;5024740;28;20292;-70
2023/09/24 09:33:33;;;;;;;1.83;1.57;;;17.50;99.90;;;;;;5024639;28;20220;-69
2023/09/24 09:36:01;;;;;;;2.73;1.83;;;17.60;99.90;;;;;;5023918;28;20311;-69
2023/09/24 09:38:29;;;;;;;3.37;1.90;;;17.70;99.90;;;;;;5021849;28;20244;-69
2023/09/24 09:40:57;;;;;;;2.33;2.13;;;17.80;99.90;;;;;;5024366;28;20211;-69
2023/09/24 09:43:25;;;;;;;2.03;1.83;;;17.90;99.90;;;;;;5024453;28;20793;-69
2023/09/24 09:45:55;;;;;;;2.47;2.23;;;17.90;99.90;;;;;;5024301;28;20242;-69
2023/09/24 09:48:30;;;;;;;5.43;2.10;;;18.10;99.90;;;;;;5024212;28;20236;-69
2023/09/24 09:51:06;;;;;;;3.13;1.50;;;18.20;99.90;;;;;;5006955;28;20205;-69
2023/09/24 09:53:36;;;;;;;4.07;1.50;;;18.40;99.90;;;;;;5024048;28;20249;-69
2023/09/24 09:56:05;;;;;;;1.67;1.33;;;18.30;99.90;;;;;;5024530;28;20644;-69
2023/09/24 09:58:34;;;;;;;5.17;1.87;;;18.40;99.90;;;;;;5024702;28;20205;-68
2023/09/24 10:01:02;;;;;;;2.70;1.77;;;18.50;99.90;;;;;;5024163;28;20255;-67
2023/09/24 10:03:31;;;;;;;1.70;1.60;;;18.60;99.90;;;;;;5024573;28;20671;-67
2023/09/24 10:06:00;;;;;;;2.97;1.60;;;18.70;99.90;;;;;;5024359;28;20242;-67
2023/09/24 10:08:42;;;;;;;2.70;1.77;;;18.80;99.90;;;;;;5024522;28;20263;-67
2023/09/24 10:11:10;;;;;;;2.13;1.50;;;18.80;99.90;;;;;;5024447;28;20197;-67
2023/09/24 10:13:48;;;;;;;3.17;1.70;;;18.90;99.90;;;;;;5023778;28;20335;-67
2023/09/24 10:16:39;;;;;;;2.87;1.50;;;18.70;99.90;;;;;;5024370;28;20228;-68
2023/09/24 10:19:08;;;;;;;2.57;1.67;;;18.70;99.90;;;;;;5018544;28;20698;-67
2023/09/24 10:21:36;;;;;;;1.77;1.00;;;18.80;99.90;;;;;;5024165;28;20220;-67
2023/09/24 10:24:49;;;;;;;3.23;1.23;;;18.90;99.90;;;;;;5024295;28;20316;-67
2023/09/24 10:27:24;;;;;;;2.13;1.50;;;19.00;99.90;;;;;;5024385;28;20247;-67
2023/09/24 10:30:06;;;;;;;3.10;1.37;;;19.10;99.90;;;;;;5025284;28;20224;-67
2023/09/24 10:32:52;;;;;;;3.30;1.20;;;19.30;99.90;;;;;;5027716;28;20205;-67
2023/09/24 10:35:19;;;;;;;2.63;1.37;;;19.40;99.90;;;;;;5008174;28;20256;-68
2023/09/24 10:38:03;;;;;;;1.97;1.40;;;19.60;99.90;;;;;;5015895;28;20200;-68
2023/09/24 10:40:31;;;;;;;3.10;1.43;;;19.90;99.90;;;;;;5027067;28;20197;-68
2023/09/24 10:43:21;;;;;;;2.00;1.30;;;20.10;99.90;;;;;;5027613;28;21043;-68
2023/09/24 10:45:49;;;;;;;1.83;1.20;;;20.20;99.90;;;;;;5026982;28;20603;-68
2023/09/24 10:48:17;;;;;;;4.63;1.27;;;20.20;99.90;;;;;;5027214;28;20203;-68
2023/09/24 10:50:44;;;;;;;2.50;1.00;;;20.30;99.90;;;;;;5027348;28;20292;-68
2023/09/24 10:53:11;;;;;;;2.67;1.20;;;20.20;99.90;;;;;;5027555;28;20244;-68
2023/09/24 10:55:43;;;;;;;4.15;1.25;;;20.20;99.90;;;;;;5027560;28;20303;-68
2023/09/24 10:58:13;;;;;;;3.73;1.20;;;20.20;99.90;;;;;;5027368;28;20193;-68
2023/09/24 11:00:43;;;;;;;2.43;1.30;;;19.90;99.90;;;;;;5026968;28;20304;-68
2023/09/24 11:03:12;;;;;;;2.07;1.00;;;19.90;99.90;;;;;;5027297;28;20299;-68
2023/09/24 11:05:45;;;;;;;2.87;1.10;;;20.10;99.90;;;;;;5027174;28;20208;-68
2023/09/24 11:08:15;;;;;;;2.53;1.10;;;20.30;99.90;;;;;;5007468;28;20342;-68
2023/09/24 11:10:46;;;;;;;5.65;0.90;;;20.40;99.90;;;;;;5007478;28;20209;-68
2023/09/24 11:13:13;;;;;;;2.42;1.17;;;20.70;99.90;;;;;;5014622;28;20305;-68
2023/09/24 11:15:42;;;;;;;2.17;0.93;;;20.80;99.90;;;;;;5026835;28;20287;-68
2023/09/24 11:18:11;;;;;;;1.80;1.10;;;21.00;99.90;;;;;;5026854;28;20814;-68
2023/09/24 11:20:38;;;;;;;1.02;0.93;;;21.30;99.90;;;;;;5026961;28;20640;-68
2023/09/24 11:23:08;;;;;;;2.78;1.10;;;21.50;99.90;;;;;;5027298;28;20302;-68
2023/09/24 11:25:36;;;;;;;2.13;0.90;;;21.70;99.90;;;;;;5026387;28;20220;-68
2023/09/24 11:28:04;;;;;;;4.03;0.93;;;21.90;99.90;;;;;;5026541;28;20235;-68
2023/09/24 11:30:42;;;;;;;5.15;1.27;;;22.00;99.90;;;;;;5026284;28;20238;-68
2023/09/24 11:33:14;;;;;;;1.08;1.08;;;22.10;99.90;;;;;;5026702;28;20933;-69
2023/09/24 11:35:41;;;;;;;2.28;1.10;;;21.90;99.90;;;;;;5026728;28;20229;-68
2023/09/24 11:38:09;;;;;;;3.25;0.93;;;21.70;99.90;;;;;;5026488;28;20291;-69
2023/09/24 11:40:36;;;;;;;3.30;1.10;;;21.50;99.90;;;;;;5026521;28;20244;-69
2023/09/24 11:43:05;;;;;;;4.22;1.42;;;21.40;99.90;;;;;;5027322;28;20607;-69
2023/09/24 11:45:42;;;;;;;3.63;1.35;;;21.40;99.90;;;;;;5026598;28;20205;-69
2023/09/24 11:48:11;;;;;;;3.65;1.20;;;21.20;99.90;;;;;;5026386;28;20225;-68
2023/09/24 11:50:39;;;;;;;2.33;1.30;;;21.20;99.90;;;;;;5026141;28;20209;-69
2023/09/24 11:53:06;;;;;;;2.97;1.00;;;21.20;99.90;;;;;;5006641;28;20328;-69
2023/09/24 11:55:33;;;;;;;1.45;1.00;;;21.30;99.90;;;;;;5006789;28;20232;-69
2023/09/24 11:58:00;;;;;;;2.28;1.25;;;21.50;99.90;;;;;;5015235;28;20310;-68
2023/09/24 12:00:27;;;;;;;3.97;1.40;;;21.70;99.90;;;;;;5026074;28;20745;-68
2023/09/24 12:02:56;;;;;;;3.90;1.50;;;22.00;99.90;;;;;;5026332;28;20288;-69
2023/09/24 12:05:23;;;;;;;2.20;1.33;;;22.20;99.90;;;;;;5026169;28;20303;-69
2023/09/24 12:07:54;;;;;;;5.80;1.33;;;22.40;99.90;;;;;;5026374;28;20263;-69
2023/09/24 12:10:22;;;;;;;3.20;1.20;;;22.60;99.90;;;;;;5026474;28;20193;-69
2023/09/24 12:12:49;;;;;;;1.40;1.05;;;22.80;99.90;;;;;;5026424;28;20215;-69
2023/09/24 12:15:17;;;;;;;1.23;1.00;;;23.00;99.90;;;;;;5025684;28;20209;-69
2023/09/24 12:17:45;;;;;;;1.48;0.98;;;23.10;99.90;;;;;;5025971;28;20204;-69
2023/09/24 12:20:14;;;;;;;1.55;1.23;;;23.20;99.90;;;;;;5026312;28;20211;-70
2023/09/24 12:22:43;;;;;;;1.23;0.90;;;23.30;99.90;;;;;;5026445;28;20236;-69
2023/09/24 12:25:11;;;;;;;1.35;1.13;;;23.40;99.90;;;;;;5026300;28;20227;-69
2023/09/24 12:27:38;;;;;;;1.02;0.80;;;23.50;99.90;;;;;;5006230;28;20644;-69
2023/09/24 12:30:06;;;;;;;1.02;1.00;;;23.40;99.90;;;;;;5006108;28;20292;-68
2023/09/24 12:32:34;;;;;;;0.88;0.80;;;23.40;99.40;;;;;;5006340;28;20206;-68
2023/09/24 12:35:02;;;;;;;1.50;0.95;;;23.60;99.60;;;;;;5021045;28;20226;-69
2023/09/24 12:37:31;;;;;;;1.50;0.80;;;23.50;99.40;;;;;;5025082;28;20263;-69
2023/09/24 12:39:58;;;;;;;1.45;0.90;;;23.60;99.40;;;;;;5025203;28;20646;-69
2023/09/24 12:42:27;;;;;;;1.25;0.70;;;23.60;99.10;;;;;;5025383;28;20212;-70
2023/09/24 12:44:54;;;;;;;2.88;1.13;;;23.70;99.30;;;;;;5025399;28;20204;-68
2023/09/24 12:47:21;;;;;;;1.95;0.98;;;23.80;98.60;;;;;;5025129;28;20236;-69
2023/09/24 12:49:48;;;;;;;1.10;0.93;;;24.00;98.80;;;;;;5024938;28;20276;-68
2023/09/24 12:52:15;;;;;;;1.60;0.60;;;24.20;98.50;;;;;;5024900;28;20667;-69
2023/09/24 12:54:43;;;;;;;0.95;0.80;;;24.40;98.40;;;;;;5024786;28;20334;-68